Time;durP1;ratioP1;P1;durP2;ratioP2;P2;SDS_P1;SDS_P2;PMS_P1;PMS_P2;Temp;Humidity;BMP_temperature;BMP_pressure;BME280_temperature;BME280_humidity;BME280_pressure;Samples;Min_cycle;Max_cycle;Signal;HPM_P1;HPM_P2
2022/12/05 00:01:42;;;;;;;6.63;1.70;;;;;;;-4.73;91.66;102645.66;10416317;28;20061;-76
2022/12/05 00:06:43;;;;;;;3.25;1.30;;;;;;;-4.87;91.61;102629.38;10416729;28;20037;-77
2022/12/05 00:11:44;;;;;;;2.95;1.45;;;;;;;-5.12;91.71;102603.66;10416221;28;20148;-77
2022/12/05 00:16:45;;;;;;;3.60;1.30;;;;;;;-4.91;91.58;102631.13;10416199;28;20092;-77
2022/12/05 00:21:46;;;;;;;3.20;1.10;;;;;;;-5.47;91.51;102536.59;10416374;28;20096;-76
2022/12/05 00:26:47;;;;;;;2.72;1.25;;;;;;;-5.30;91.54;102551.97;10415849;28;20556;-76
2022/12/05 00:31:48;;;;;;;2.80;1.50;;;;;;;-5.30;91.23;102583.06;10415240;28;20045;-77
2022/12/05 00:36:49;;;;;;;5.35;1.98;;;;;;;-5.34;92.19;102599.50;10414590;28;20045;-76
2022/12/05 00:41:50;;;;;;;3.83;1.20;;;;;;;-5.20;92.11;102610.63;10415680;28;20045;-76
2022/12/05 00:46:50;;;;;;;2.40;1.00;;;;;;;-5.29;92.00;102593.44;10414513;28;20084;-76
2022/12/05 00:51:51;;;;;;;2.30;0.90;;;;;;;-5.55;91.93;102557.34;10414951;28;20489;-76
2022/12/05 00:56:55;;;;;;;5.10;1.25;;;;;;;-5.27;92.43;102614.97;10413703;28;20469;-76
2022/12/05 01:01:56;;;;;;;2.10;1.27;;;;;;;-5.59;92.03;102558.25;10415046;28;20037;-76
2022/12/05 01:06:57;;;;;;;2.67;1.38;;;;;;;-5.19;91.98;102616.69;10414264;28;20037;-76
2022/12/05 01:11:58;;;;;;;5.68;1.42;;;;;;;-5.42;92.23;102578.81;10413464;28;20111;-76
2022/12/05 01:16:59;;;;;;;2.92;1.20;;;;;;;-5.22;92.06;102616.69;10413699;28;20103;-76
2022/12/05 01:22:00;;;;;;;3.67;1.63;;;;;;;-5.27;92.21;102603.75;10413206;28;20455;-76
2022/12/05 01:27:01;;;;;;;3.20;1.52;;;;;;;-5.49;92.07;102565.94;10413757;28;20037;-76
2022/12/05 01:32:02;;;;;;;3.22;1.45;;;;;;;-5.29;92.03;102611.56;10384905;28;20057;-76
2022/12/05 01:37:03;;;;;;;3.38;1.63;;;;;;;-5.25;92.21;102607.22;10372659;28;20108;-76
2022/12/05 01:42:04;;;;;;;6.13;1.80;;;;;;;-5.55;92.07;102567.72;10411211;28;20080;-76
2022/12/05 01:47:07;;;;;;;4.50;1.60;;;;;;;-5.55;91.89;102562.53;10413797;28;20057;-76
2022/12/05 01:52:15;;;;;;;3.13;1.55;;;;;;;-5.24;91.85;102602.88;10412954;28;20080;-76
2022/12/05 01:57:16;;;;;;;4.60;1.08;;;;;;;-5.65;91.40;102534.09;10406374;28;20395;-76
2022/12/05 02:02:17;;;;;;;3.22;1.75;;;;;;;-5.36;91.25;102580.53;10372071;28;20038;-76
2022/12/05 02:07:18;;;;;;;2.75;1.60;;;;;;;-5.49;91.37;102555.59;10372210;28;20053;-76
2022/12/05 02:12:21;;;;;;;3.17;1.58;;;;;;;-5.54;90.95;102533.16;10372987;28;20048;-76
2022/12/05 02:17:38;;;;;;;3.35;1.65;;;;;;;-5.42;91.35;102565.03;10369816;28;20399;-76
2022/12/05 02:23:10;;;;;;;4.40;1.90;;;;;;;-5.76;91.41;102503.13;10371745;28;20046;-76
2022/12/05 02:28:32;;;;;;;3.95;1.70;;;;;;;-5.25;91.21;102586.50;10374920;28;20136;-76
2022/12/05 02:33:49;;;;;;;11.82;1.58;;;;;;;-6.15;91.23;102427.50;10384579;28;20053;-79
2022/12/05 02:39:05;;;;;;;7.78;2.20;;;;;;;-5.39;91.38;102583.13;10436868;28;20053;-76
2022/12/05 02:44:17;;;;;;;3.63;1.77;;;;;;;-5.54;91.30;102579.78;10393774;28;20486;-77
2022/12/05 02:49:22;;;;;;;3.90;1.90;;;;;;;-6.00;91.56;102510.22;10378396;28;20092;-77
2022/12/05 02:54:28;;;;;;;3.58;1.50;;;;;;;-5.85;91.68;102534.25;10410205;28;20496;-76
2022/12/05 02:59:29;;;;;;;4.95;1.80;;;;;;;-5.88;91.34;102523.91;10418559;28;20531;-76
2022/12/05 03:04:31;;;;;;;5.65;1.83;;;;;;;-5.90;91.16;102517.88;10389519;28;20046;-79
2022/12/05 03:09:57;;;;;;;4.45;1.92;;;;;;;-5.89;91.41;102506.66;10408923;28;20533;-77
2022/12/05 03:15:04;;;;;;;3.17;1.60;;;;;;;-5.74;91.04;102564.38;10419187;28;20124;-75
2022/12/05 03:20:18;;;;;;;4.20;1.60;;;;;;;-5.83;90.98;102533.38;10430549;28;20393;-78
2022/12/05 03:25:25;;;;;;;3.63;1.80;;;;;;;-6.06;90.89;102510.25;10376816;28;20049;-76
2022/12/05 03:30:26;;;;;;;7.22;1.60;;;;;;;-5.62;91.29;102578.97;10376263;28;20084;-76
2022/12/05 03:35:26;;;;;;;5.85;1.98;;;;;;;-5.56;91.56;102593.63;10376786;28;20091;-77
2022/12/05 03:40:38;;;;;;;3.42;1.63;;;;;;;-5.61;91.26;102592.78;10375828;28;20049;-77
2022/12/05 03:45:48;;;;;;;3.83;1.85;;;;;;;-6.03;91.47;102525.75;10376424;28;20144;-77
2022/12/05 03:50:52;;;;;;;5.65;1.70;;;;;;;-5.92;91.74;102559.31;10370454;28;20525;-76
2022/12/05 03:56:07;;;;;;;3.70;1.52;;;;;;;-5.71;91.84;102583.34;10416782;28;20037;-74
2022/12/05 04:01:10;;;;;;;6.97;1.70;;;;;;;-6.43;91.33;102474.22;10416829;28;20505;-78
2022/12/05 04:06:29;;;;;;;3.63;1.70;;;;;;;-5.81;91.64;102569.59;10416221;28;20080;-73
2022/12/05 04:11:35;;;;;;;4.03;1.77;;;;;;;-5.88;91.86;102570.50;10416456;28;20164;-76
2022/12/05 04:17:03;;;;;;;4.93;2.30;;;;;;;-6.23;92.31;102532.75;10414914;28;20500;-77
2022/12/05 04:22:04;;;;;;;2.85;1.52;;;;;;;-5.90;92.34;102592.94;10416341;28;20042;-76
2022/12/05 04:27:36;;;;;;;5.82;2.35;;;;;;;-5.94;92.06;102584.38;10415446;28;20378;-71
2022/12/05 04:32:48;;;;;;;3.67;2.10;;;;;;;-6.27;92.36;102529.31;10414628;28;20045;-73
2022/12/05 04:37:55;;;;;;;5.95;2.58;;;;;;;-6.32;92.32;102509.53;10414675;28;20589;-72
2022/12/05 04:42:58;;;;;;;7.40;2.70;;;;;;;-6.22;91.95;102509.47;10414244;28;20088;-74
2022/12/05 04:48:03;;;;;;;4.73;2.33;;;;;;;-5.83;91.70;102563.59;10415319;28;20119;-74
2022/12/05 04:53:08;;;;;;;6.00;2.10;;;;;;;-6.29;91.45;102478.47;10406268;28;20049;-75
2022/12/05 04:58:10;;;;;;;;;;;;;;;-5.76;91.40;102612.72;10414896;28;20058;-78
2022/12/05 05:03:23;;;;;;;9.88;2.55;;;;;;;-6.47;91.84;102502.69;10410066;28;19923;-77
2022/12/05 05:08:27;;;;;;;4.57;2.80;;;;;;;-5.78;91.95;102609.25;10411265;28;20068;-77
2022/12/05 05:13:28;;;;;;;5.20;2.42;;;;;;;-5.70;91.39;102616.16;10413162;28;20065;-76
2022/12/05 05:18:29;;;;;;;6.95;2.63;;;;;;;-5.66;91.12;102621.28;10413349;28;20077;-77
2022/12/05 05:23:30;;;;;;;3.90;1.80;;;;;;;-5.53;90.93;102612.59;10414389;28;20076;-77
2022/12/05 05:28:30;;;;;;;8.43;3.10;;;;;;;-6.08;90.36;102499.03;10413573;28;20037;-77
2022/12/05 05:33:32;;;;;;;4.32;2.00;;;;;;;-5.27;90.38;102611.53;10413800;28;20038;-78
2022/12/05 05:38:45;;;;;;;3.78;2.25;;;;;;;-5.39;89.02;102620.25;10413837;28;20128;-76
2022/12/05 05:43:47;;;;;;;5.33;2.33;;;;;;;-5.84;89.87;102554.06;10413790;28;20064;-77
2022/12/05 05:48:48;;;;;;;6.57;2.30;;;;;;;-5.46;89.64;102571.09;10413269;28;20139;-77
2022/12/05 05:53:49;;;;;;;6.63;2.97;;;;;;;-5.37;89.01;102579.66;10412947;28;20057;-76
2022/12/05 05:58:58;;;;;;;5.53;2.20;;;;;;;-5.63;89.04;102525.47;10412842;28;20048;-78
2022/12/05 06:03:59;;;;;;;4.53;2.15;;;;;;;-5.34;88.83;102558.91;10419129;28;20512;-76
2022/12/05 06:09:00;;;;;;;4.72;2.33;;;;;;;-5.41;87.38;102455.38;10421232;28;20104;-76
2022/12/05 06:14:01;;;;;;;3.30;1.80;;;;;;;-5.21;86.71;102520.81;10421100;28;20042;-77
2022/12/05 06:19:01;;;;;;;5.90;1.95;;;;;;;-4.83;87.59;102563.66;10420808;28;20087;-77
2022/12/05 06:24:02;;;;;;;3.67;1.77;;;;;;;-4.66;86.16;102585.09;10421092;28;20072;-77
2022/12/05 06:29:03;;;;;;;3.85;2.05;;;;;;;-4.68;87.00;102607.59;10419470;28;20496;-75
2022/12/05 06:34:04;;;;;;;5.68;2.50;;;;;;;-4.63;86.97;102587.66;10420306;28;20038;-76
2022/12/05 06:39:05;;;;;;;4.63;2.15;;;;;;;-4.83;86.31;102514.41;10420131;28;20081;-76
2022/12/05 06:44:05;;;;;;;6.68;2.00;;;;;;;-4.63;85.44;102524.56;10419938;28;20386;-77
2022/12/05 06:49:08;;;;;;;8.73;2.67;;;;;;;-4.01;84.35;102593.03;10419526;28;20037;-76
2022/12/05 06:54:11;;;;;;;3.80;1.73;;;;;;;-3.86;84.87;102611.84;10420106;28;20524;-76
2022/12/05 06:59:12;;;;;;;4.50;1.65;;;;;;;-4.14;84.91;102527.41;10419448;28;20045;-76
2022/12/05 07:04:19;;;;;;;2.83;1.40;;;;;;;-3.50;84.32;102603.56;10419696;28;20045;-77
2022/12/05 07:09:44;;;;;;;4.15;2.05;;;;;;;-3.75;83.27;102556.28;10419264;28;20490;-78
2022/12/05 07:14:43;;;;;;;4.15;1.98;;;;;;;-3.37;84.16;102604.25;10417783;28;20033;-77
2022/12/05 07:19:48;;;;;;;3.65;1.75;;;;;;;-3.39;82.81;102590.41;10418434;28;20033;-77
2022/12/05 07:24:51;;;;;;;3.55;1.52;;;;;;;-3.47;83.90;102558.47;10419017;28;20521;-77
2022/12/05 07:29:52;;;;;;;7.43;1.77;;;;;;;-3.06;83.64;102582.94;10418287;28;20091;-77
2022/12/05 07:34:53;;;;;;;3.47;1.35;;;;;;;-3.01;84.13;102575.94;10418452;28;20038;-76
2022/12/05 07:39:53;;;;;;;3.00;1.40;;;;;;;-2.80;83.02;102522.69;10418569;28;20136;-78
2022/12/05 07:44:54;;;;;;;9.18;1.40;;;;;;;-3.18;82.58;102429.78;10417388;28;20052;-77
2022/12/05 07:49:55;;;;;;;2.22;1.17;;;;;;;-2.93;82.70;102446.66;10416847;28;20076;-77
2022/12/05 07:54:57;;;;;;;3.88;1.45;;;;;;;-1.85;82.45;102552.84;10416159;28;20056;-77
2022/12/05 07:59:58;;;;;;;3.22;1.20;;;;;;;-1.90;79.68;102502.56;10416613;28;20080;-78
2022/12/05 08:04:58;;;;;;;5.15;1.40;;;;;;;-1.90;81.17;102539.03;10415824;28;20509;-77
2022/12/05 08:09:59;;;;;;;2.75;1.23;;;;;;;-2.06;81.34;102496.00;10416200;28;20412;-78
2022/12/05 08:15:00;;;;;;;2.67;1.25;;;;;;;-1.70;80.70;102537.75;10415774;28;20136;-78
2022/12/05 08:20:01;;;;;;;5.22;1.38;;;;;;;-1.45;79.79;102507.59;10415711;28;20049;-76
2022/12/05 08:25:02;;;;;;;2.58;1.00;;;;;;;-1.83;79.22;102465.06;10415411;28;20047;-76
2022/12/05 08:30:04;;;;;;;5.72;2.45;;;;;;;-1.75;79.45;102466.66;10416538;28;20041;-76
2022/12/05 08:35:05;;;;;;;4.35;1.58;;;;;;;-1.72;79.91;102443.13;10415780;28;20052;-76
2022/12/05 08:40:06;;;;;;;2.55;1.27;;;;;;;-1.12;79.03;102486.78;10415032;28;20046;-76
2022/12/05 08:45:07;;;;;;;6.32;1.60;;;;;;;-1.42;78.37;102434.53;10415099;28;20508;-77
2022/12/05 08:50:08;;;;;;;5.80;1.60;;;;;;;-1.50;78.75;102500.78;10415764;28;20631;-76
2022/12/05 08:55:09;;;;;;;3.20;1.63;;;;;;;-1.72;79.88;102443.97;10414209;28;20203;-76
2022/12/05 09:00:10;;;;;;;4.07;1.20;;;;;;;-2.12;79.69;102395.44;10414075;28;20033;-75
2022/12/05 09:05:11;;;;;;;5.07;1.40;;;;;;;-1.35;79.38;102479.53;10413886;28;20076;-76
2022/12/05 09:10:12;;;;;;;4.57;1.10;;;;;;;-1.59;80.22;102486.22;10414115;28;20064;-77
2022/12/05 09:15:12;;;;;;;5.88;1.30;;;;;;;-1.55;80.57;102448.78;10428798;28;20068;-76
2022/12/05 09:20:15;;;;;;;6.55;1.40;;;;;;;-1.81;79.19;102360.81;10414040;28;20072;-77
2022/12/05 09:25:15;;;;;;;4.18;1.40;;;;;;;-1.65;79.54;102376.91;10414431;28;20133;-76
2022/12/05 09:30:16;;;;;;;5.97;1.48;;;;;;;-1.19;79.82;102433.94;10414041;28;20616;-75
2022/12/05 09:35:17;;;;;;;4.85;1.45;;;;;;;-1.06;79.43;102476.19;10412656;28;20045;-76
2022/12/05 09:40:18;;;;;;;5.28;1.67;;;;;;;-1.24;80.00;102429.72;10413264;28;20037;-76
2022/12/05 09:45:35;;;;;;;3.60;1.30;;;;;;;-1.90;80.11;102330.66;10413309;28;20150;-76
2022/12/05 09:50:48;;;;;;;5.63;1.55;;;;;;;-1.15;80.46;102434.69;10413101;28;20077;-75
2022/12/05 09:56:11;;;;;;;5.68;1.38;;;;;;;-0.85;79.94;102461.69;10413093;28;20564;-77
2022/12/05 10:01:37;;;;;;;4.15;0.90;;;;;;;-0.80;78.52;102445.91;10413589;28;20569;-76
2022/12/05 10:06:49;;;;;;;2.70;1.20;;;;;;;-0.69;79.53;102441.22;10412902;28;20072;-76
2022/12/05 10:11:56;;;;;;;2.55;1.27;;;;;;;-0.75;79.67;102437.06;10412348;28;20042;-75
2022/12/05 10:17:07;;;;;;;4.43;1.50;;;;;;;-0.89;79.67;102426.16;10412710;28;20041;-76
2022/12/05 10:22:18;;;;;;;3.65;1.30;;;;;;;-1.08;80.57;102407.53;10411297;28;20033;-75
2022/12/05 10:27:46;;;;;;;4.53;1.30;;;;;;;-1.03;80.02;102405.66;10411984;28;20068;-77
2022/12/05 10:33:02;;;;;;;9.43;1.10;;;;;;;-1.40;80.10;102345.84;10409077;28;20494;-75
2022/12/05 10:38:05;;;;;;;5.97;1.08;;;;;;;-0.87;80.14;102431.31;10412301;28;20045;-76
2022/12/05 10:43:09;;;;;;;10.25;1.58;;;;;;;-0.82;80.35;102421.63;10412089;28;20504;-76
2022/12/05 10:48:18;;;;;;;;;;;;;;;-0.77;80.05;102417.97;10413452;28;20107;-75
2022/12/05 10:53:48;;;;;;;2.42;1.17;;;;;;;-0.98;79.61;102392.50;10419677;28;20401;-75
2022/12/05 10:58:57;;;;;;;4.05;1.15;;;;;;;-0.89;79.58;102412.25;10419415;28;20081;-75
2022/12/05 11:04:09;;;;;;;3.20;0.77;;;;;;;-1.29;79.09;102325.53;10417950;28;20087;-77
2022/12/05 11:09:18;;;;;;;8.15;1.63;;;;;;;-0.72;79.20;102415.22;10418755;28;20088;-75
2022/12/05 11:14:25;;;;;;;7.00;1.00;;;;;;;-0.76;79.33;102390.97;10417794;28;20517;-76
2022/12/05 11:19:28;;;;;;;2.17;0.70;;;;;;;-0.58;78.20;102392.19;10418544;28;20048;-74
2022/12/05 11:24:35;;;;;;;4.53;1.10;;;;;;;-0.58;78.26;102381.75;10418605;28;20052;-75
2022/12/05 11:29:38;;;;;;;5.45;1.38;;;;;;;-0.56;77.50;102379.09;10418420;28;20037;-75
2022/12/05 11:35:09;;;;;;;8.55;1.27;;;;;;;-0.56;77.32;102389.53;10432781;28;20043;-75
2022/12/05 11:40:34;;;;;;;4.38;1.10;;;;;;;-0.62;76.33;102385.34;10409432;28;20085;-75
2022/12/05 11:46:10;;;;;;;5.80;0.90;;;;;;;-0.81;78.13;102353.72;10417677;28;20452;-75
2022/12/05 11:51:37;;;;;;;4.88;0.90;;;;;;;-1.01;77.96;102356.91;10416795;28;20037;-75
2022/12/05 11:56:46;;;;;;;5.50;0.68;;;;;;;-1.25;78.53;102339.38;10417382;28;20095;-76
2022/12/05 12:02:02;;;;;;;7.93;0.88;;;;;;;-0.86;78.76;102399.97;10417790;28;20037;-76
2022/12/05 12:07:27;;;;;;;6.13;0.98;;;;;;;-1.34;78.26;102324.81;10416680;28;20068;-75
2022/12/05 12:12:35;;;;;;;5.53;0.82;;;;;;;-1.31;78.30;102347.38;10416246;28;20523;-76
2022/12/05 12:17:45;;;;;;;6.80;0.82;;;;;;;-1.78;78.52;102266.94;10416803;28;20041;-75
2022/12/05 12:23:10;;;;;;;6.88;1.08;;;;;;;-0.97;78.68;102397.66;10406110;28;20076;-75
2022/12/05 12:28:32;;;;;;;4.38;0.90;;;;;;;-1.02;77.71;102380.41;10398574;28;20041;-75
2022/12/05 12:33:49;;;;;;;6.85;0.90;;;;;;;-0.86;78.15;102357.38;10398547;28;20457;-76
2022/12/05 12:39:08;;;;;;;5.90;0.73;;;;;;;-0.63;76.29;102391.44;10373600;28;20096;-76
2022/12/05 12:44:43;;;;;;;7.07;0.98;;;;;;;-1.20;77.10;102317.47;10388104;28;20513;-76
2022/12/05 12:50:22;;;;;;;3.95;0.80;;;;;;;-1.26;77.04;102311.56;10402672;28;20056;-76
2022/12/05 12:55:39;;;;;;;2.17;0.70;;;;;;;-1.09;77.50;102365.84;10387891;28;20053;-76
2022/12/05 13:00:55;;;;;;;4.07;0.63;;;;;;;-1.80;78.37;102254.84;10374616;28;20402;-73
2022/12/05 13:06:06;;;;;;;4.55;0.70;;;;;;;-1.09;78.45;102377.13;10386417;28;20041;-75
2022/12/05 13:11:10;;;;;;;9.43;0.85;;;;;;;-1.84;78.52;102267.97;10383548;28;20041;-78
2022/12/05 13:16:22;;;;;;;7.55;0.75;;;;;;;-1.38;78.02;102350.13;10373218;28;20049;-75
2022/12/05 13:21:25;;;;;;;7.72;1.17;;;;;;;-1.28;79.13;102375.97;10373151;28;20099;-76
2022/12/05 13:26:26;;;;;;;4.85;1.05;;;;;;;-1.54;79.04;102347.97;10374100;28;20524;-75
2022/12/05 13:31:44;;;;;;;5.82;1.55;;;;;;;-1.66;79.38;102336.13;10386609;28;20045;-73
2022/12/05 13:42:15;;;;;;;6.05;1.15;;;;;;;-1.74;80.05;102340.66;10406446;28;20556;-74
2022/12/05 13:47:45;;;;;;;6.18;0.88;;;;;;;-1.53;80.43;102392.22;10384625;28;20057;-74
2022/12/05 13:52:51;;;;;;;4.35;1.05;;;;;;;-2.14;80.59;102279.19;10392610;28;20413;-74
2022/12/05 13:57:57;;;;;;;10.18;1.58;;;;;;;-1.73;80.21;102364.09;10382622;28;20049;-75
2022/12/05 14:03:35;;;;;;;6.50;1.17;;;;;;;-1.89;81.09;102340.16;10383651;28;20049;-75
2022/12/05 14:08:38;;;;;;;15.05;1.33;;;;;;;-1.55;80.81;102387.97;10388831;28;20042;-74
2022/12/05 14:13:42;;;;;;;6.68;0.95;;;;;;;-1.58;80.59;102375.03;10405002;28;20141;-74
2022/12/05 14:18:59;;;;;;;6.10;0.80;;;;;;;-1.78;80.56;102345.13;10419065;28;20072;-76
2022/12/05 14:24:27;;;;;;;6.57;1.05;;;;;;;-1.61;81.43;102381.16;10410555;28;20111;-76
2022/12/05 14:29:55;;;;;;;1.85;0.43;;;;;;;-2.12;81.57;102293.03;10412769;28;20063;-76
2022/12/05 14:35:09;;;;;;;1.83;0.57;;;;;;;-1.83;81.22;102368.66;10430459;28;20055;-75
2022/12/05 14:40:28;;;;;;;1.00;0.40;;;;;;;-1.97;81.77;102349.09;10429763;28;20040;-74
2022/12/05 14:45:37;;;;;;;1.75;0.70;;;;;;;-1.79;81.86;102384.25;10409174;28;20118;-75
2022/12/05 14:50:45;;;;;;;3.80;0.60;;;;;;;-1.83;82.16;102384.28;10411058;28;20094;-74
2022/12/05 14:56:20;;;;;;;0.80;0.22;;;;;;;-1.85;81.85;102375.69;10413307;28;20048;-74
2022/12/05 15:01:52;;;;;;;3.45;0.57;;;;;;;-1.88;81.74;102374.91;10392642;28;20046;-74
2022/12/05 15:07:01;;;;;;;2.53;0.50;;;;;;;-1.93;81.76;102372.41;10373111;28;20057;-75
2022/12/05 15:12:06;;;;;;;1.90;0.47;;;;;;;-1.99;82.19;102359.53;10376051;28;20034;-76
2022/12/05 15:17:15;;;;;;;1.75;0.52;;;;;;;-2.08;81.93;102368.44;10378397;28;20052;-75
2022/12/05 15:22:18;;;;;;;6.18;0.85;;;;;;;-2.17;81.74;102353.03;10395108;28;20042;-75
2022/12/05 15:27:19;;;;;;;11.70;0.88;;;;;;;-2.54;81.73;102295.81;10401881;28;20506;-76
2022/12/05 15:32:26;;;;;;;4.60;0.57;;;;;;;-2.12;81.19;102379.81;10402944;28;20041;-75
2022/12/05 15:37:29;;;;;;;2.42;0.70;;;;;;;-2.59;81.94;102292.44;10405079;28;20065;-74
2022/12/05 15:42:33;;;;;;;2.63;0.60;;;;;;;-2.68;81.60;102306.50;10428920;28;20033;-75
2022/12/05 15:47:34;;;;;;;1.15;0.47;;;;;;;-2.54;81.00;102338.28;10430563;28;20410;-74
2022/12/05 15:52:56;;;;;;;3.45;0.75;;;;;;;-2.33;81.19;102373.38;10433436;28;20037;-75
2022/12/05 15:58:06;;;;;;;4.95;0.75;;;;;;;-2.43;81.92;102374.44;10435452;28;20072;-75
2022/12/05 16:03:27;;;;;;;1.30;0.40;;;;;;;-2.57;81.21;102360.91;10429816;28;20045;-74
2022/12/05 16:08:39;;;;;;;2.15;0.40;;;;;;;-3.40;81.31;102250.03;10430253;28;20037;-77
2022/12/05 16:13:48;;;;;;;3.25;0.60;;;;;;;-2.75;81.57;102364.78;10433264;28;20041;-74
2022/12/05 16:18:56;;;;;;;3.75;0.75;;;;;;;-3.07;81.86;102324.69;10417700;28;20045;-74
2022/12/05 16:24:20;;;;;;;1.48;0.50;;;;;;;-2.77;82.18;102385.59;10406571;28;20049;-76
2022/12/05 16:29:30;;;;;;;2.15;0.80;;;;;;;-3.28;81.92;102312.16;10409479;28;20045;-74
2022/12/05 16:34:32;;;;;;;2.25;0.32;;;;;;;-3.16;81.80;102345.69;10408363;28;20030;-75
2022/12/05 16:39:33;;;;;;;2.53;0.60;;;;;;;-2.98;81.45;102375.66;10410492;28;20037;-74
2022/12/05 16:44:46;;;;;;;2.47;0.75;;;;;;;-3.06;81.54;102382.75;10408812;28;20053;-74
2022/12/05 16:49:47;;;;;;;1.35;0.47;;;;;;;-3.37;81.54;102333.97;10405422;28;20493;-75
2022/12/05 16:54:49;;;;;;;3.38;0.60;;;;;;;-3.20;82.04;102367.44;10415394;28;20038;-75
2022/12/05 16:59:50;;;;;;;2.78;0.88;;;;;;;-3.38;82.30;102363.47;10414470;28;20120;-75
2022/12/05 17:04:51;;;;;;;2.15;0.63;;;;;;;-3.54;82.33;102355.06;10376695;28;20129;-74
2022/12/05 17:09:52;;;;;;;2.78;1.00;;;;;;;-3.48;82.96;102369.69;10373153;28;20041;-74
2022/12/05 17:14:53;;;;;;;1.95;0.52;;;;;;;-3.47;82.66;102361.00;10373376;28;20042;-74
2022/12/05 17:19:53;;;;;;;5.57;1.02;;;;;;;-3.60;82.46;102346.53;10373125;28;20407;-75
2022/12/05 17:24:57;;;;;;;1.27;0.50;;;;;;;-3.98;83.17;102301.31;10373395;28;20124;-75
2022/12/05 17:29:58;;;;;;;1.87;0.67;;;;;;;-3.61;83.33;102353.47;10371879;28;20040;-75
2022/12/05 17:34:59;;;;;;;3.03;0.80;;;;;;;-3.77;83.35;102344.22;10372340;28;20291;-75
2022/12/05 17:39:59;;;;;;;2.08;0.75;;;;;;;-3.58;83.38;102366.41;10372259;28;20045;-74
2022/12/05 17:45:00;;;;;;;2.35;0.80;;;;;;;-3.75;83.59;102343.31;10403075;28;20067;-79
2022/12/05 17:50:03;;;;;;;3.42;1.10;;;;;;;-4.01;83.31;102301.38;10424684;28;20401;-75
2022/12/05 17:55:04;;;;;;;1.90;0.60;;;;;;;-3.68;83.70;102347.53;10430250;28;20087;-77
2022/12/05 18:00:05;;;;;;;1.58;0.63;;;;;;;-3.79;84.15;102348.63;10427101;28;20048;-77
2022/12/05 18:05:08;;;;;;;1.98;0.68;;;;;;;-3.79;83.57;102356.41;10412180;28;20138;-76
2022/12/05 18:10:12;;;;;;;1.65;0.55;;;;;;;-3.91;83.92;102332.34;10413469;28;20504;-77
2022/12/05 18:15:13;;;;;;;;;;;;;;;-3.92;83.52;102340.16;10384593;28;20045;-75
2022/12/05 18:20:14;;;;;;;1.67;0.68;;;;;;;-4.28;83.73;102302.69;10394794;28;20023;-76
2022/12/05 18:25:15;;;;;;;2.00;0.73;;;;;;;-4.51;83.60;102271.97;10387436;28;20049;-76
2022/12/05 18:30:16;;;;;;;3.22;0.90;;;;;;;-4.57;83.88;102251.31;10393832;28;20042;-78
2022/12/05 18:35:17;;;;;;;1.80;0.70;;;;;;;-4.69;83.52;102245.44;10384624;28;20132;-73
2022/12/05 18:40:18;;;;;;;2.47;0.57;;;;;;;-4.36;83.93;102319.25;10387753;28;20091;-75
2022/12/05 18:45:20;;;;;;;2.05;0.93;;;;;;;-4.39;84.46;102326.25;10411817;28;20622;-75
2022/12/05 18:50:21;;;;;;;1.83;0.50;;;;;;;-4.40;84.44;102319.31;10412713;28;20431;-75
2022/12/05 18:55:22;;;;;;;1.25;0.52;;;;;;;-4.39;84.27;102328.84;10404743;28;20158;-75
2022/12/05 19:00:23;;;;;;;4.43;0.90;;;;;;;-4.50;84.36;102333.31;10371655;28;20050;-75
2022/12/05 19:05:24;;;;;;;2.83;0.70;;;;;;;-4.65;84.76;102311.91;10371041;28;20045;-75
2022/12/05 19:10:24;;;;;;;1.27;0.60;;;;;;;-4.66;84.82;102311.94;10373941;28;20049;-75
2022/12/05 19:15:25;;;;;;;2.85;0.95;;;;;;;-4.88;84.68;102293.22;10378514;28;20498;-76
2022/12/05 19:20:26;;;;;;;3.90;0.75;;;;;;;-4.84;84.79;102300.09;10377350;28;20042;-75
2022/12/05 19:25:30;;;;;;;5.40;0.80;;;;;;;-4.71;84.95;102324.13;10377431;28;20523;-75
2022/12/05 19:30:30;;;;;;;2.42;0.77;;;;;;;-4.71;85.06;102322.38;10377053;28;20050;-76
2022/12/05 19:35:35;;;;;;;2.50;1.10;;;;;;;-5.30;85.01;102248.88;10375940;28;20037;-77
2022/12/05 19:40:36;;;;;;;3.05;0.60;;;;;;;-4.88;85.15;102319.16;10377115;28;20073;-76
2022/12/05 19:45:37;;;;;;;3.53;0.90;;;;;;;-5.01;85.52;102302.06;10375533;28;20054;-76
2022/12/05 19:50:38;;;;;;;2.40;0.85;;;;;;;-5.49;85.20;102226.69;10375621;28;20044;-76
2022/12/05 19:55:39;;;;;;;2.92;0.82;;;;;;;-5.21;85.97;102286.75;10377728;28;20060;-77
2022/12/05 20:00:40;;;;;;;1.48;0.63;;;;;;;-5.39;86.82;102285.25;10417021;28;20045;-76
2022/12/05 20:05:41;;;;;;;4.97;1.30;;;;;;;-5.19;86.46;102310.94;10416439;28;20128;-75
2022/12/05 20:10:41;;;;;;;1.70;0.90;;;;;;;-5.42;86.10;102288.72;10432238;28;20037;-75
2022/12/05 20:15:42;;;;;;;2.40;1.10;;;;;;;-5.44;86.04;102305.16;10416556;28;20041;-76
2022/12/05 20:20:43;;;;;;;1.90;0.80;;;;;;;-5.36;86.63;102305.94;10416551;28;20401;-75
2022/12/05 20:25:44;;;;;;;3.10;0.95;;;;;;;-5.41;86.62;102307.75;10416247;28;20075;-76
2022/12/05 20:30:45;;;;;;;2.20;1.00;;;;;;;-5.56;86.19;102293.25;10416489;28;20029;-75
2022/12/05 20:35:46;;;;;;;2.83;1.20;;;;;;;-5.41;86.46;102338.84;10415318;28;20041;-75
2022/12/05 20:40:46;;;;;;;4.25;1.30;;;;;;;-5.47;86.37;102315.56;10415164;28;20441;-80
2022/12/05 20:45:47;;;;;;;3.17;1.02;;;;;;;-5.60;86.15;102300.16;10415634;28;20107;-76
2022/12/05 20:50:48;;;;;;;2.42;1.17;;;;;;;-5.73;86.30;102285.66;10415648;28;20056;-75
2022/12/05 20:55:49;;;;;;;3.38;1.20;;;;;;;-5.62;86.46;102304.53;10414499;28;20075;-75
2022/12/05 21:00:57;;;;;;;2.47;1.20;;;;;;;-5.68;86.26;102286.47;10415112;28;20136;-76
2022/12/05 21:05:58;;;;;;;1.83;1.00;;;;;;;-5.69;86.09;102276.97;10415471;28;20132;-75
2022/12/05 21:10:59;;;;;;;2.47;1.23;;;;;;;-5.79;85.53;102280.53;10413864;28;20068;-75
2022/12/05 21:16:26;;;;;;;3.70;1.30;;;;;;;-5.83;85.73;102284.91;10414150;28;20052;-76
2022/12/05 21:21:28;;;;;;;3.25;1.33;;;;;;;-6.04;85.31;102262.72;10413787;28;20041;-76
2022/12/05 21:26:31;;;;;;;5.43;1.52;;;;;;;-6.34;85.46;102213.81;10413437;28;20048;-76
2022/12/05 21:31:35;;;;;;;2.85;1.20;;;;;;;-6.25;84.72;102231.84;10406230;28;20033;-76
2022/12/05 21:36:36;;;;;;;2.58;1.00;;;;;;;-6.21;84.13;102218.03;10392271;28;20050;-76
2022/12/05 21:41:37;;;;;;;2.08;0.95;;;;;;;-5.98;82.71;102249.72;10372569;28;20041;-76
2022/12/05 21:46:38;;;;;;;2.05;1.10;;;;;;;-6.18;81.74;102217.16;10374536;28;20061;-76
2022/12/05 21:51:39;;;;;;;2.55;1.08;;;;;;;-6.29;79.71;102209.47;10401335;28;20521;-75
2022/12/05 21:56:40;;;;;;;2.92;1.23;;;;;;;-6.28;80.27;102216.34;10372239;28;20585;-76
2022/12/05 22:01:41;;;;;;;4.05;1.13;;;;;;;-6.04;80.52;102257.53;10371925;28;20068;-75
2022/12/05 22:06:42;;;;;;;4.47;1.63;;;;;;;-6.20;79.45;102227.50;10372027;28;20088;-76
2022/12/05 22:11:43;;;;;;;2.88;1.30;;;;;;;-6.28;79.61;102224.13;10371591;28;20045;-76
2022/12/05 22:16:43;;;;;;;2.90;1.50;;;;;;;-6.52;79.72;102176.94;10371500;28;20050;-76
2022/12/05 22:21:44;;;;;;;2.28;1.30;;;;;;;-6.00;80.59;102251.44;10370312;28;20193;-76
2022/12/05 22:26:45;;;;;;;3.95;1.60;;;;;;;-6.41;80.06;102175.97;10371785;28;20038;-76
2022/12/05 22:31:46;;;;;;;4.68;1.48;;;;;;;-5.90;80.09;102241.81;10371834;28;20042;-77
2022/12/05 22:36:48;;;;;;;3.72;1.63;;;;;;;-5.85;79.48;102259.91;10370725;28;20046;-76
2022/12/05 22:41:49;;;;;;;4.45;1.30;;;;;;;-6.04;79.81;102218.72;10370653;28;20050;-77
2022/12/05 22:46:50;;;;;;;4.18;1.90;;;;;;;-6.10;79.55;102211.03;10375477;28;20049;-76
2022/12/05 22:51:51;;;;;;;3.55;1.70;;;;;;;-6.02;79.67;102229.03;10411510;28;20065;-76
2022/12/05 22:56:52;;;;;;;3.17;1.50;;;;;;;-6.58;80.04;102142.53;10379225;28;20038;-76
2022/12/05 23:01:52;;;;;;;3.78;1.90;;;;;;;-5.89;80.21;102273.72;10378669;28;20042;-77
2022/12/05 23:06:53;;;;;;;3.28;1.63;;;;;;;-6.26;80.42;102187.03;10379540;28;20084;-77
2022/12/05 23:11:54;;;;;;;3.80;1.77;;;;;;;-5.80;80.80;102258.97;10378298;28;20512;-76
2022/12/05 23:16:55;;;;;;;7.03;1.63;;;;;;;-6.10;80.58;102217.91;10378328;28;20468;-76
2022/12/05 23:21:56;;;;;;;5.80;1.90;;;;;;;-5.80;80.62;102247.78;10376730;28;20033;-76
2022/12/05 23:26:57;;;;;;;3.58;1.65;;;;;;;-6.32;80.90;102157.78;10377970;28;20509;-76
2022/12/05 23:31:57;;;;;;;4.53;1.73;;;;;;;-6.25;80.96;102149.97;10378048;28;20034;-76